createdAt,value
2022-12-28T00:01:30.060Z,26.46
2022-12-28T00:03:56.939Z,26.32
2022-12-28T00:06:23.701Z,26.38
2022-12-28T00:08:50.491Z,26.27
2022-12-28T00:11:26.397Z,26.35
2022-12-28T00:13:57.653Z,26.25
2022-12-28T00:16:24.505Z,26.35
2022-12-28T00:18:51.335Z,26.37
2022-12-28T00:21:18.099Z,26.31
2022-12-28T00:23:44.922Z,26.25
2022-12-28T00:26:11.773Z,26.20
2022-12-28T00:28:38.542Z,26.33
2022-12-28T00:31:05.383Z,26.20
2022-12-28T00:33:32.143Z,26.31
2022-12-28T00:35:58.898Z,26.35
2022-12-28T00:38:25.709Z,26.36
2022-12-28T00:40:52.727Z,26.19
2022-12-28T00:43:19.556Z,26.32
2022-12-28T00:45:46.377Z,26.29
2022-12-28T00:48:13.244Z,26.34
2022-12-28T00:50:40.039Z,26.38
2022-12-28T00:53:06.820Z,26.38
2022-12-28T00:55:33.572Z,26.32
2022-12-28T00:58:00.345Z,26.11
2022-12-28T01:00:27.118Z,26.30
2022-12-28T01:02:54.682Z,26.24
2022-12-28T01:05:21.465Z,26.21
2022-12-28T01:07:48.237Z,26.33
2022-12-28T01:10:15.010Z,26.36
2022-12-28T01:12:41.784Z,26.20
2022-12-28T01:15:08.580Z,26.34
2022-12-28T01:17:35.388Z,26.20
2022-12-28T01:20:02.181Z,26.34
2022-12-28T01:22:28.966Z,26.16
2022-12-28T01:24:55.954Z,26.34
2022-12-28T01:27:22.821Z,26.27
2022-12-28T01:29:49.739Z,26.38
2022-12-28T01:32:16.550Z,26.19
2022-12-28T01:34:43.293Z,26.31
2022-12-28T01:37:10.102Z,26.33
2022-12-28T01:39:36.874Z,26.26
2022-12-28T01:42:03.660Z,26.26
2022-12-28T01:44:30.425Z,26.30
2022-12-28T01:46:57.209Z,26.33
2022-12-28T01:49:23.991Z,26.28
2022-12-28T01:51:50.745Z,26.24
2022-12-28T01:54:17.514Z,26.17
2022-12-28T01:56:44.291Z,26.30
2022-12-28T01:59:11.073Z,26.32
2022-12-28T02:01:38.018Z,26.19
2022-12-28T02:04:04.844Z,26.30
2022-12-28T02:06:31.628Z,26.31
2022-12-28T02:08:58.399Z,26.28
2022-12-28T02:11:25.229Z,26.30
2022-12-28T02:13:51.997Z,26.21
2022-12-28T02:16:18.868Z,26.31
2022-12-28T02:18:45.661Z,26.23
2022-12-28T02:21:12.848Z,26.28
2022-12-28T02:23:39.659Z,26.22
2022-12-28T02:26:06.435Z,26.32
2022-12-28T02:28:33.248Z,26.35
2022-12-28T02:31:00.270Z,26.23
2022-12-28T02:33:27.072Z,26.23
2022-12-28T02:35:53.952Z,26.19
2022-12-28T02:38:20.834Z,26.28
2022-12-28T02:40:47.600Z,26.18
2022-12-28T02:43:14.376Z,26.28
2022-12-28T02:46:00.037Z,26.37
2022-12-28T02:48:45.519Z,26.18
2022-12-28T02:51:12.274Z,26.12
2022-12-28T02:53:39.022Z,26.24
2022-12-28T02:56:08.924Z,26.30
2022-12-28T02:58:35.704Z,26.20
2022-12-28T03:01:02.580Z,26.16
2022-12-28T03:03:29.497Z,26.16
2022-12-28T03:06:19.550Z,26.17
2022-12-28T03:08:46.815Z,26.25
2022-12-28T03:11:15.926Z,26.17
2022-12-28T03:13:42.955Z,26.23
2022-12-28T03:16:09.789Z,26.16
2022-12-28T03:18:55.442Z,26.24
2022-12-28T03:21:40.956Z,26.27
2022-12-28T03:24:26.394Z,26.18
2022-12-28T03:27:11.761Z,26.24
2022-12-28T03:29:57.001Z,26.15
2022-12-28T03:32:23.846Z,26.29
2022-12-28T03:34:50.651Z,26.24
2022-12-28T03:37:17.493Z,26.36
2022-12-28T03:39:44.306Z,26.26
2022-12-28T03:42:29.751Z,26.30
2022-12-28T03:44:56.549Z,26.15
2022-12-28T03:47:23.308Z,26.17
2022-12-28T03:49:50.097Z,26.33
2022-12-28T03:52:16.892Z,26.28
2022-12-28T03:54:43.695Z,26.22
2022-12-28T03:57:10.596Z,26.39
2022-12-28T03:59:37.451Z,26.34
2022-12-28T04:02:04.361Z,26.32
2022-12-28T04:04:31.181Z,26.22
2022-12-28T04:06:58.073Z,26.25
2022-12-28T04:09:24.967Z,26.35
2022-12-28T04:11:51.749Z,26.14
2022-12-28T04:14:18.541Z,26.22
2022-12-28T04:16:45.529Z,26.18
2022-12-28T04:19:12.341Z,26.11
2022-12-28T04:21:39.108Z,26.24
2022-12-28T04:24:05.857Z,26.08
2022-12-28T04:26:32.626Z,26.12
2022-12-28T04:29:01.988Z,26.20
2022-12-28T04:31:28.788Z,26.19
2022-12-28T04:33:55.579Z,26.26
2022-12-28T04:36:22.359Z,26.23
2022-12-28T04:38:49.159Z,26.11
2022-12-28T04:41:15.924Z,26.22
2022-12-28T04:43:42.727Z,26.29
2022-12-28T04:46:09.568Z,26.23
2022-12-28T04:48:36.488Z,26.16
2022-12-28T04:51:03.297Z,26.20
2022-12-28T04:53:30.111Z,26.19
2022-12-28T04:55:59.191Z,26.09
2022-12-28T04:58:26.009Z,26.14
2022-12-28T05:00:52.809Z,26.24
2022-12-28T05:03:19.616Z,26.31
2022-12-28T05:05:46.378Z,26.25
2022-12-28T05:08:13.189Z,26.32
2022-12-28T05:10:39.940Z,26.23
2022-12-28T05:13:06.927Z,26.24
2022-12-28T05:15:33.742Z,26.15
2022-12-28T05:18:00.489Z,26.23
2022-12-28T05:20:27.291Z,26.16
2022-12-28T05:22:54.122Z,26.11
2022-12-28T05:25:20.928Z,26.23
2022-12-28T05:27:47.788Z,26.34
2022-12-28T05:30:14.580Z,26.15
2022-12-28T05:32:41.398Z,26.11
2022-12-28T05:35:08.311Z,26.29
2022-12-28T05:37:35.119Z,26.20
2022-12-28T05:40:01.927Z,26.31
2022-12-28T05:42:28.745Z,26.15
2022-12-28T05:44:55.725Z,26.21
2022-12-28T05:47:22.495Z,26.14
2022-12-28T05:49:49.286Z,26.17
2022-12-28T05:52:16.106Z,26.29
2022-12-28T05:54:42.927Z,26.18
2022-12-28T05:57:09.706Z,26.08
2022-12-28T05:59:36.477Z,26.14
2022-12-28T06:02:03.328Z,26.20
2022-12-28T06:04:30.199Z,26.11
2022-12-28T06:06:57.040Z,26.18
2022-12-28T06:09:23.803Z,26.39
2022-12-28T06:11:50.592Z,26.27
2022-12-28T06:14:17.411Z,26.24
2022-12-28T06:16:44.341Z,26.16
2022-12-28T06:19:11.161Z,26.26
2022-12-28T06:21:37.942Z,26.17
2022-12-28T06:24:04.779Z,26.21
2022-12-28T06:26:31.563Z,26.12
2022-12-28T06:28:58.365Z,26.15
2022-12-28T06:31:25.161Z,26.09
2022-12-28T06:33:55.920Z,26.39
2022-12-28T06:36:22.686Z,26.14
2022-12-28T06:38:49.483Z,26.24
2022-12-28T06:41:16.258Z,26.17
2022-12-28T06:43:43.097Z,26.28
2022-12-28T06:46:10.016Z,26.22
2022-12-28T06:48:36.825Z,26.13
2022-12-28T06:51:03.619Z,26.19
2022-12-28T06:53:30.429Z,26.23
2022-12-28T06:55:57.238Z,26.25
2022-12-28T06:58:24.012Z,26.15
2022-12-28T07:00:50.844Z,26.16
2022-12-28T07:03:17.719Z,26.25
2022-12-28T07:05:44.587Z,26.25
2022-12-28T07:08:12.899Z,26.25
2022-12-28T07:10:40.009Z,26.24
2022-12-28T07:13:06.789Z,26.26
2022-12-28T07:15:33.556Z,26.19
2022-12-28T07:18:00.370Z,26.26
2022-12-28T07:20:27.199Z,26.22
2022-12-28T07:22:54.009Z,26.20
2022-12-28T07:25:20.803Z,26.18
2022-12-28T07:27:47.573Z,26.28
2022-12-28T07:30:14.330Z,26.34
2022-12-28T07:32:41.140Z,26.26
2022-12-28T07:35:07.916Z,26.25
2022-12-28T07:37:34.720Z,26.27
2022-12-28T07:40:01.742Z,26.20
2022-12-28T07:42:28.550Z,26.15
2022-12-28T07:44:55.330Z,26.18
2022-12-28T07:47:22.228Z,26.27
2022-12-28T07:49:48.998Z,26.36
2022-12-28T07:52:15.784Z,26.37
2022-12-28T07:54:42.548Z,26.27
2022-12-28T07:57:09.325Z,26.21
2022-12-28T07:59:36.105Z,26.36
2022-12-28T08:02:02.946Z,26.23
2022-12-28T08:04:29.878Z,26.26
2022-12-28T08:06:56.694Z,26.36
2022-12-28T08:09:23.519Z,26.24
2022-12-28T08:11:50.322Z,26.46
2022-12-28T08:14:17.177Z,26.25
2022-12-28T08:16:44.013Z,26.20
2022-12-28T08:19:10.801Z,26.29
2022-12-28T08:21:37.602Z,26.32
2022-12-28T08:24:04.402Z,26.32
2022-12-28T08:26:31.252Z,26.32
2022-12-28T08:28:58.114Z,26.29
2022-12-28T08:31:25.003Z,26.19
2022-12-28T08:33:51.797Z,26.22
2022-12-28T08:36:18.597Z,26.31
2022-12-28T08:38:45.389Z,26.28
2022-12-28T08:41:12.220Z,26.26
2022-12-28T08:43:39.006Z,26.45
2022-12-28T08:46:05.977Z,26.30
2022-12-28T08:48:32.899Z,26.32
2022-12-28T08:50:59.649Z,26.20
2022-12-28T08:53:26.467Z,26.28
2022-12-28T08:55:53.256Z,26.30
2022-12-28T08:58:20.089Z,26.41
2022-12-28T09:00:46.977Z,26.31
2022-12-28T09:03:13.919Z,26.29
2022-12-28T09:05:40.816Z,26.38
2022-12-28T09:08:07.809Z,26.29
2022-12-28T09:10:34.632Z,26.33
2022-12-28T09:13:01.402Z,26.35
2022-12-28T09:15:28.226Z,26.25
2022-12-28T09:17:55.008Z,26.31
2022-12-28T09:20:21.844Z,26.36
2022-12-28T09:22:48.660Z,26.39
2022-12-28T09:25:15.462Z,26.35
2022-12-28T09:27:42.259Z,26.35
2022-12-28T09:30:09.010Z,26.34
2022-12-28T09:32:35.793Z,26.36
2022-12-28T09:35:02.575Z,26.35
2022-12-28T09:37:30.401Z,26.36
2022-12-28T09:40:01.354Z,26.34
2022-12-28T09:42:28.885Z,26.32
2022-12-28T09:44:56.015Z,26.36
2022-12-28T09:47:22.964Z,26.31
2022-12-28T09:49:49.778Z,26.46
2022-12-28T09:52:16.549Z,26.36
2022-12-28T09:54:43.287Z,26.34
2022-12-28T09:57:10.061Z,26.36
2022-12-28T09:59:36.917Z,26.38
2022-12-28T10:02:03.875Z,26.35
2022-12-28T10:04:30.722Z,26.34
2022-12-28T10:07:01.701Z,26.57
2022-12-28T10:09:28.480Z,26.38
2022-12-28T10:11:55.299Z,26.35
2022-12-28T10:14:22.099Z,26.43
2022-12-28T10:16:49.076Z,26.36
2022-12-28T10:19:15.959Z,26.44
2022-12-28T10:21:42.785Z,26.37
2022-12-28T10:24:30.851Z,26.41
2022-12-28T10:26:56.564Z,26.38
2022-12-28T10:29:23.351Z,26.41
2022-12-28T10:31:50.198Z,26.37
2022-12-28T10:34:17.682Z,26.30
2022-12-28T10:36:44.680Z,26.44
2022-12-28T10:39:11.506Z,26.49
2022-12-28T10:41:40.680Z,26.44
2022-12-28T10:44:37.979Z,26.56
2022-12-28T10:46:54.354Z,26.50
2022-12-28T10:49:21.446Z,26.48
2022-12-28T10:51:48.259Z,26.44
2022-12-28T10:54:15.071Z,26.43
2022-12-28T10:56:54.598Z,26.41
2022-12-28T10:59:21.530Z,26.40
2022-12-28T11:01:48.426Z,26.34
2022-12-28T11:04:15.287Z,26.32
2022-12-28T11:06:44.308Z,26.45
2022-12-28T11:09:11.062Z,26.48
2022-12-28T11:11:37.820Z,26.53
2022-12-28T11:14:04.635Z,26.60
2022-12-28T11:16:31.425Z,26.45
2022-12-28T11:18:58.384Z,26.47
2022-12-28T11:21:25.303Z,26.38
2022-12-28T11:23:52.709Z,26.37
2022-12-28T11:26:19.946Z,26.46
2022-12-28T11:28:46.770Z,26.39
2022-12-28T11:31:13.622Z,26.33
2022-12-28T11:33:40.496Z,26.42
2022-12-28T11:36:10.199Z,26.49
2022-12-28T11:38:37.167Z,26.44
2022-12-28T11:41:03.969Z,26.48
2022-12-28T11:43:30.773Z,26.48
2022-12-28T11:45:57.594Z,26.46
2022-12-28T11:48:24.438Z,26.40
2022-12-28T11:50:51.223Z,26.32
2022-12-28T11:53:18.031Z,26.36
2022-12-28T11:55:44.839Z,26.49
2022-12-28T11:58:11.634Z,26.30
2022-12-28T12:00:39.659Z,26.37
2022-12-28T12:03:06.579Z,26.49
2022-12-28T12:05:33.388Z,26.55
2022-12-28T12:08:00.143Z,26.43
2022-12-28T12:10:27.552Z,26.61
2022-12-28T12:12:54.439Z,26.41
2022-12-28T12:15:21.346Z,26.54
2022-12-28T12:17:48.192Z,26.47
2022-12-28T12:20:14.970Z,26.37
2022-12-28T12:22:41.781Z,26.54
2022-12-28T12:25:08.542Z,26.46
2022-12-28T12:27:36.573Z,26.46
2022-12-28T12:30:03.390Z,26.51
2022-12-28T12:32:30.160Z,26.59
2022-12-28T12:34:56.947Z,26.50
2022-12-28T12:37:26.042Z,26.56
2022-12-28T12:39:52.917Z,26.53
2022-12-28T12:42:19.715Z,26.49
2022-12-28T12:44:46.506Z,26.62
2022-12-28T12:47:13.336Z,26.59
2022-12-28T12:49:40.158Z,26.46
2022-12-28T12:52:06.957Z,26.49
2022-12-28T12:54:33.755Z,26.64
2022-12-28T12:57:00.526Z,26.40
2022-12-28T12:59:27.304Z,26.42
2022-12-28T13:01:54.242Z,26.56
2022-12-28T13:04:21.163Z,26.51
2022-12-28T13:06:48.115Z,26.58
2022-12-28T13:09:14.896Z,26.41
2022-12-28T13:11:41.717Z,26.53
2022-12-28T13:14:08.479Z,26.44
2022-12-28T13:16:35.295Z,26.49
2022-12-28T13:19:02.131Z,26.54
2022-12-28T13:21:28.923Z,26.56
2022-12-28T13:23:55.708Z,26.46
2022-12-28T13:26:22.492Z,26.49
2022-12-28T13:28:49.234Z,26.50
2022-12-28T13:31:17.439Z,26.43
2022-12-28T13:33:44.487Z,26.46
2022-12-28T13:36:11.818Z,26.55
2022-12-28T13:38:38.600Z,26.73
2022-12-28T13:41:05.371Z,26.61
2022-12-28T13:43:32.120Z,26.48
2022-12-28T13:45:58.926Z,26.57
2022-12-28T13:48:25.723Z,26.45
2022-12-28T13:50:53.420Z,26.63
2022-12-28T13:53:20.774Z,26.62
2022-12-28T13:55:47.601Z,26.53
2022-12-28T13:58:14.451Z,26.58
2022-12-28T14:00:41.211Z,26.51
2022-12-28T14:03:08.023Z,26.50
2022-12-28T14:05:34.825Z,26.66
2022-12-28T14:08:02.410Z,26.52
2022-12-28T14:10:29.324Z,26.55
2022-12-28T14:12:56.113Z,26.63
2022-12-28T14:15:22.882Z,26.74
2022-12-28T14:17:49.664Z,26.61
2022-12-28T14:20:16.492Z,26.38
2022-12-28T14:22:43.346Z,26.45
2022-12-28T14:25:10.303Z,26.48
2022-12-28T14:27:37.071Z,26.42
2022-12-28T14:30:03.906Z,26.56
2022-12-28T14:32:30.668Z,26.48
2022-12-28T14:34:58.103Z,26.49
2022-12-28T14:37:24.850Z,26.47
2022-12-28T14:39:51.628Z,26.53
2022-12-28T14:42:18.390Z,26.46
2022-12-28T14:44:45.420Z,26.47
2022-12-28T14:47:13.705Z,26.56
2022-12-28T14:49:42.519Z,26.66
2022-12-28T14:52:09.311Z,26.54
2022-12-28T14:54:36.090Z,26.64
2022-12-28T14:57:02.940Z,26.51
2022-12-28T14:59:29.794Z,26.57
2022-12-28T15:01:56.906Z,26.58
2022-12-28T15:04:23.730Z,26.55
2022-12-28T15:06:50.476Z,26.69
2022-12-28T15:09:17.685Z,26.66
2022-12-28T15:11:47.281Z,26.59
2022-12-28T15:14:14.070Z,26.56
2022-12-28T15:16:40.881Z,26.50
2022-12-28T15:19:07.734Z,26.47
2022-12-28T15:21:34.571Z,26.47
2022-12-28T15:24:01.500Z,26.57
2022-12-28T15:26:28.261Z,26.53
2022-12-28T15:28:55.099Z,26.61
2022-12-28T15:31:22.172Z,26.64
2022-12-28T15:33:48.972Z,26.70
2022-12-28T15:36:17.985Z,26.62
2022-12-28T15:38:45.128Z,26.49
2022-12-28T15:41:31.091Z,26.65
2022-12-28T15:43:57.939Z,26.61
2022-12-28T15:46:24.748Z,26.49
2022-12-28T15:48:51.880Z,26.60
2022-12-28T15:51:18.725Z,26.54
2022-12-28T15:53:46.858Z,26.57
2022-12-28T15:56:13.662Z,26.51
2022-12-28T15:58:40.444Z,26.57
2022-12-28T16:01:07.297Z,26.58
2022-12-28T16:03:34.273Z,26.71
2022-12-28T16:06:01.178Z,26.76
2022-12-28T16:08:27.939Z,26.68
2022-12-28T16:10:54.951Z,26.70
2022-12-28T16:13:21.728Z,26.60
2022-12-28T16:15:48.534Z,26.65
2022-12-28T16:18:15.317Z,26.64
2022-12-28T16:20:42.062Z,26.59
2022-12-28T16:23:08.863Z,26.62
2022-12-28T16:25:35.649Z,26.62
2022-12-28T16:28:02.457Z,26.52
2022-12-28T16:30:30.372Z,26.53
2022-12-28T16:32:57.202Z,26.63
2022-12-28T16:35:23.977Z,26.64
2022-12-28T16:37:50.776Z,26.50
2022-12-28T16:40:17.534Z,26.64
2022-12-28T16:42:45.646Z,26.59
2022-12-28T16:45:12.488Z,26.46
2022-12-28T16:47:44.379Z,26.47
2022-12-28T16:50:11.765Z,26.48
2022-12-28T16:52:38.514Z,26.59
2022-12-28T16:55:05.313Z,26.58
2022-12-28T16:57:32.126Z,26.53
2022-12-28T16:59:58.894Z,26.48
2022-12-28T17:02:25.799Z,26.59
2022-12-28T17:04:52.695Z,26.59
2022-12-28T17:07:19.551Z,26.55
2022-12-28T17:09:50.097Z,26.56
2022-12-28T17:12:17.322Z,26.71
2022-12-28T17:14:44.200Z,26.54
2022-12-28T17:17:10.949Z,26.48
2022-12-28T17:19:37.711Z,26.58
2022-12-28T17:22:04.548Z,26.58
2022-12-28T17:24:31.343Z,26.53
2022-12-28T17:27:03.361Z,26.54
2022-12-28T17:29:33.876Z,26.52
2022-12-28T17:32:01.978Z,26.63
2022-12-28T17:34:29.015Z,26.50
2022-12-28T17:36:55.903Z,26.54
2022-12-28T17:39:22.698Z,26.59
2022-12-28T17:41:49.455Z,26.64
2022-12-28T17:44:16.272Z,26.50
2022-12-28T17:46:43.077Z,26.59
2022-12-28T17:49:09.883Z,26.50
2022-12-28T17:51:36.904Z,26.61
2022-12-28T17:54:03.720Z,26.55
2022-12-28T17:56:30.487Z,26.55
2022-12-28T17:58:57.258Z,26.64
2022-12-28T18:01:24.212Z,26.60
2022-12-28T18:03:51.119Z,26.54
2022-12-28T18:06:17.905Z,26.79
2022-12-28T18:08:44.944Z,26.62
2022-12-28T18:11:11.840Z,26.59
2022-12-28T18:13:38.666Z,26.54
2022-12-28T18:16:05.463Z,26.45
2022-12-28T18:18:32.242Z,26.54
2022-12-28T18:20:59.147Z,26.56
2022-12-28T18:23:27.897Z,26.59
2022-12-28T18:25:54.698Z,26.53
2022-12-28T18:28:23.588Z,26.73
2022-12-28T18:30:50.365Z,26.49
2022-12-28T18:33:17.173Z,26.59
2022-12-28T18:35:43.927Z,26.61
2022-12-28T18:38:10.726Z,26.50
2022-12-28T18:40:40.555Z,26.60
2022-12-28T18:43:07.327Z,26.62
2022-12-28T18:45:34.138Z,26.55
2022-12-28T18:48:00.904Z,26.66
2022-12-28T18:50:27.757Z,26.55
2022-12-28T18:52:54.517Z,26.58
2022-12-28T18:55:21.339Z,26.51
2022-12-28T18:57:48.156Z,26.54
2022-12-28T19:00:14.947Z,26.45
2022-12-28T19:02:41.913Z,26.54
2022-12-28T19:05:09.570Z,26.53
2022-12-28T19:07:36.359Z,26.57
2022-12-28T19:10:13.572Z,26.54
2022-12-28T19:12:40.543Z,26.55
2022-12-28T19:15:07.327Z,26.67
2022-12-28T19:17:34.116Z,26.57
2022-12-28T19:20:01.034Z,26.47
2022-12-28T19:22:27.887Z,26.51
2022-12-28T19:24:54.677Z,26.56
2022-12-28T19:27:21.455Z,26.52
2022-12-28T19:29:50.412Z,26.53
2022-12-28T19:32:17.202Z,26.47
2022-12-28T19:34:44.022Z,26.65
2022-12-28T19:37:10.864Z,26.49
2022-12-28T19:39:37.635Z,26.64
2022-12-28T19:42:04.429Z,26.44
2022-12-28T19:44:31.257Z,26.49
2022-12-28T19:46:58.688Z,26.51
2022-12-28T19:49:25.557Z,26.62
2022-12-28T19:51:52.374Z,26.62
2022-12-28T19:54:19.516Z,26.69
2022-12-28T19:56:46.379Z,26.51
2022-12-28T19:59:13.192Z,26.53
2022-12-28T20:01:40.082Z,26.54
2022-12-28T20:04:12.948Z,26.45
2022-12-28T20:06:40.508Z,26.48
2022-12-28T20:09:07.381Z,26.56
2022-12-28T20:11:34.152Z,26.45
2022-12-28T20:14:00.952Z,26.45
2022-12-28T20:16:27.900Z,26.52
2022-12-28T20:18:54.685Z,26.74
2022-12-28T20:21:22.187Z,26.56
2022-12-28T20:23:49.116Z,26.53
2022-12-28T20:26:15.878Z,26.47
2022-12-28T20:28:42.854Z,26.50
2022-12-28T20:31:09.844Z,26.57
2022-12-28T20:33:36.818Z,26.52
2022-12-28T20:36:03.576Z,26.60
2022-12-28T20:38:30.347Z,26.47
2022-12-28T20:40:57.118Z,26.72
2022-12-28T20:43:23.913Z,26.61
2022-12-28T20:45:54.221Z,26.60
2022-12-28T20:48:21.273Z,26.63
2022-12-28T20:50:48.218Z,26.71
2022-12-28T20:53:15.099Z,26.53
2022-12-28T20:55:41.918Z,26.61
2022-12-28T20:58:08.693Z,26.49
2022-12-28T21:00:35.566Z,26.56
2022-12-28T21:03:02.410Z,26.75
2022-12-28T21:05:29.263Z,26.62
2022-12-28T21:07:56.113Z,26.53
2022-12-28T21:10:22.895Z,26.56
2022-12-28T21:12:49.663Z,26.64
2022-12-28T21:15:17.053Z,26.44
2022-12-28T21:17:43.893Z,26.80
2022-12-28T21:20:10.702Z,26.52
2022-12-28T21:22:37.517Z,26.62
2022-12-28T21:25:04.309Z,26.59
2022-12-28T21:27:31.104Z,26.51
2022-12-28T21:29:59.033Z,26.66
2022-12-28T21:32:25.900Z,26.62
2022-12-28T21:34:52.690Z,26.58
2022-12-28T21:37:34.901Z,26.54
2022-12-28T21:40:01.802Z,26.49
2022-12-28T21:42:28.642Z,26.59
2022-12-28T21:44:55.411Z,26.64
2022-12-28T21:47:22.143Z,26.47
2022-12-28T21:49:48.950Z,26.57
2022-12-28T21:52:15.713Z,26.54
2022-12-28T21:54:42.472Z,26.47
2022-12-28T21:57:09.236Z,26.59
2022-12-28T21:59:36.290Z,26.46
2022-12-28T22:02:21.707Z,26.54
2022-12-28T22:05:20.847Z,26.56
2022-12-28T22:07:47.703Z,26.54
2022-12-28T22:10:33.240Z,26.50
2022-12-28T22:13:00.043Z,26.59
2022-12-28T22:15:45.637Z,26.59
2022-12-28T22:18:29.750Z,26.48
2022-12-28T22:20:59.276Z,26.41
2022-12-28T22:23:32.718Z,26.43
2022-12-28T22:26:01.319Z,26.51
2022-12-28T22:28:28.131Z,26.52
2022-12-28T22:30:54.898Z,26.46
2022-12-28T22:33:21.714Z,26.56
2022-12-28T22:35:48.688Z,26.50
2022-12-28T22:38:15.559Z,26.47
2022-12-28T22:40:42.364Z,26.63
2022-12-28T22:43:09.106Z,26.57
2022-12-28T22:45:36.030Z,26.53
2022-12-28T22:48:02.806Z,26.84
2022-12-28T22:50:29.601Z,26.42
2022-12-28T22:52:56.619Z,26.59
2022-12-28T22:55:23.491Z,26.53
2022-12-28T22:57:50.235Z,26.45
2022-12-28T23:00:17.031Z,26.46
2022-12-28T23:02:45.176Z,26.41
2022-12-28T23:05:12.165Z,26.54
2022-12-28T23:07:39.361Z,26.46
2022-12-28T23:10:06.183Z,26.55
2022-12-28T23:12:33.108Z,26.46
2022-12-28T23:15:19.283Z,26.60
2022-12-28T23:17:46.188Z,26.50
2022-12-28T23:20:31.839Z,26.38
2022-12-28T23:23:17.275Z,26.50
2022-12-28T23:26:02.668Z,26.50
2022-12-28T23:28:29.449Z,26.56
2022-12-28T23:30:56.452Z,26.41
2022-12-28T23:33:23.388Z,26.55
2022-12-28T23:35:50.275Z,26.46
2022-12-28T23:38:17.103Z,26.47
2022-12-28T23:40:43.961Z,26.62
2022-12-28T23:43:10.752Z,26.50
2022-12-28T23:45:37.507Z,26.63
2022-12-28T23:48:04.315Z,26.49
2022-12-28T23:50:31.087Z,26.43
2022-12-28T23:52:57.849Z,26.45
2022-12-28T23:55:24.670Z,26.49
2022-12-28T23:57:51.460Z,26.55
